sensor_id;sensor_type;location;lat;lon;timestamp;temperature;humidity
81630;DHT22;71039;49.500;10.418;2023-07-31T00:02:20;19.10;50.20
81630;DHT22;71039;49.500;10.418;2023-07-31T00:04:46;19.10;50.20
81630;DHT22;71039;49.500;10.418;2023-07-31T00:07:11;19.10;50.20
81630;DHT22;71039;49.500;10.418;2023-07-31T00:09:37;19.10;50.30
81630;DHT22;71039;49.500;10.418;2023-07-31T00:12:02;19.10;50.30
81630;DHT22;71039;49.500;10.418;2023-07-31T00:14:28;19.20;50.30
81630;DHT22;71039;49.500;10.418;2023-07-31T00:16:54;19.20;50.30
81630;DHT22;71039;49.500;10.418;2023-07-31T00:19:19;19.20;50.30
81630;DHT22;71039;49.500;10.418;2023-07-31T00:21:45;19.20;50.30
81630;DHT22;71039;49.500;10.418;2023-07-31T00:24:10;19.20;50.40
81630;DHT22;71039;49.500;10.418;2023-07-31T00:26:36;19.20;50.40
81630;DHT22;71039;49.500;10.418;2023-07-31T00:29:01;19.20;50.40
81630;DHT22;71039;49.500;10.418;2023-07-31T00:31:27;19.20;50.40
81630;DHT22;71039;49.500;10.418;2023-07-31T00:33:52;19.20;50.40
81630;DHT22;71039;49.500;10.418;2023-07-31T00:36:18;19.20;50.40
81630;DHT22;71039;49.500;10.418;2023-07-31T00:38:43;19.20;50.40
81630;DHT22;71039;49.500;10.418;2023-07-31T00:41:09;19.20;50.50
81630;DHT22;71039;49.500;10.418;2023-07-31T00:43:35;19.30;50.40
81630;DHT22;71039;49.500;10.418;2023-07-31T00:46:00;19.30;50.50
81630;DHT22;71039;49.500;10.418;2023-07-31T00:48:26;19.30;50.50
81630;DHT22;71039;49.500;10.418;2023-07-31T00:50:52;19.30;50.60
81630;DHT22;71039;49.500;10.418;2023-07-31T00:53:18;19.30;50.60
81630;DHT22;71039;49.500;10.418;2023-07-31T00:55:44;19.30;50.60
81630;DHT22;71039;49.500;10.418;2023-07-31T00:58:10;19.30;50.60
81630;DHT22;71039;49.500;10.418;2023-07-31T01:00:38;19.30;50.70
81630;DHT22;71039;49.500;10.418;2023-07-31T01:03:03;19.40;50.60
81630;DHT22;71039;49.500;10.418;2023-07-31T01:06:36;19.40;50.70
81630;DHT22;71039;49.500;10.418;2023-07-31T01:08:57;19.40;50.70
81630;DHT22;71039;49.500;10.418;2023-07-31T01:11:28;19.40;50.80
81630;DHT22;71039;49.500;10.418;2023-07-31T01:13:55;19.40;50.60
81630;DHT22;71039;49.500;10.418;2023-07-31T01:16:21;19.40;50.60
81630;DHT22;71039;49.500;10.418;2023-07-31T01:18:46;19.40;50.60
81630;DHT22;71039;49.500;10.418;2023-07-31T01:27:12;19.40;50.70
81630;DHT22;71039;49.500;10.418;2023-07-31T01:29:56;19.40;50.70
81630;DHT22;71039;49.500;10.418;2023-07-31T01:32:25;19.50;50.70
81630;DHT22;71039;49.500;10.418;2023-07-31T01:34:53;19.40;50.60
81630;DHT22;71039;49.500;10.418;2023-07-31T01:37:19;19.50;50.60
81630;DHT22;71039;49.500;10.418;2023-07-31T01:39:45;19.50;50.60
81630;DHT22;71039;49.500;10.418;2023-07-31T01:42:10;19.50;50.60
81630;DHT22;71039;49.500;10.418;2023-07-31T01:44:36;19.50;50.70
81630;DHT22;71039;49.500;10.418;2023-07-31T01:47:04;19.50;50.60
81630;DHT22;71039;49.500;10.418;2023-07-31T01:49:29;19.50;50.60
81630;DHT22;71039;49.500;10.418;2023-07-31T01:51:55;19.50;50.60
81630;DHT22;71039;49.500;10.418;2023-07-31T01:54:21;19.50;50.60
81630;DHT22;71039;49.500;10.418;2023-07-31T01:56:47;19.50;50.60
81630;DHT22;71039;49.500;10.418;2023-07-31T01:59:12;19.50;50.50
81630;DHT22;71039;49.500;10.418;2023-07-31T02:01:38;19.50;50.50
81630;DHT22;71039;49.500;10.418;2023-07-31T02:04:03;19.50;50.50
81630;DHT22;71039;49.500;10.418;2023-07-31T02:06:29;19.50;50.50
81630;DHT22;71039;49.500;10.418;2023-07-31T02:08:54;19.50;50.40
81630;DHT22;71039;49.500;10.418;2023-07-31T02:11:20;19.50;50.40
81630;DHT22;71039;49.500;10.418;2023-07-31T02:13:46;19.50;50.30
81630;DHT22;71039;49.500;10.418;2023-07-31T02:16:11;19.50;50.30
81630;DHT22;71039;49.500;10.418;2023-07-31T02:18:37;19.50;50.30
81630;DHT22;71039;49.500;10.418;2023-07-31T02:21:02;19.50;50.30
81630;DHT22;71039;49.500;10.418;2023-07-31T02:23:28;19.50;50.30
81630;DHT22;71039;49.500;10.418;2023-07-31T02:25:53;19.50;50.30
81630;DHT22;71039;49.500;10.418;2023-07-31T02:28:19;19.50;50.30
81630;DHT22;71039;49.500;10.418;2023-07-31T02:30:45;19.50;50.40
81630;DHT22;71039;49.500;10.418;2023-07-31T02:33:11;19.50;50.40
81630;DHT22;71039;49.500;10.418;2023-07-31T02:35:36;19.50;50.40
81630;DHT22;71039;49.500;10.418;2023-07-31T02:38:02;19.50;50.40
81630;DHT22;71039;49.500;10.418;2023-07-31T02:40:27;19.50;50.50
81630;DHT22;71039;49.500;10.418;2023-07-31T02:42:53;19.50;50.50
81630;DHT22;71039;49.500;10.418;2023-07-31T02:45:18;19.50;50.50
81630;DHT22;71039;49.500;10.418;2023-07-31T02:47:44;19.50;50.50
81630;DHT22;71039;49.500;10.418;2023-07-31T02:50:10;19.50;50.50
81630;DHT22;71039;49.500;10.418;2023-07-31T02:52:35;19.50;50.50
81630;DHT22;71039;49.500;10.418;2023-07-31T02:55:01;19.50;50.50
81630;DHT22;71039;49.500;10.418;2023-07-31T02:57:26;19.50;50.50
81630;DHT22;71039;49.500;10.418;2023-07-31T02:59:52;19.50;50.50
81630;DHT22;71039;49.500;10.418;2023-07-31T03:02:17;19.40;50.50
81630;DHT22;71039;49.500;10.418;2023-07-31T03:04:43;19.50;50.40
81630;DHT22;71039;49.500;10.418;2023-07-31T03:07:09;19.40;50.40
81630;DHT22;71039;49.500;10.418;2023-07-31T03:09:34;19.40;50.40
81630;DHT22;71039;49.500;10.418;2023-07-31T03:12:00;19.40;50.40
81630;DHT22;71039;49.500;10.418;2023-07-31T03:14:25;19.40;50.40
81630;DHT22;71039;49.500;10.418;2023-07-31T03:16:51;19.40;50.40
81630;DHT22;71039;49.500;10.418;2023-07-31T03:19:16;19.40;50.50
81630;DHT22;71039;49.500;10.418;2023-07-31T03:21:42;19.30;50.50
81630;DHT22;71039;49.500;10.418;2023-07-31T03:24:07;19.30;50.50
81630;DHT22;71039;49.500;10.418;2023-07-31T03:26:33;19.30;50.50
81630;DHT22;71039;49.500;10.418;2023-07-31T03:28:58;19.30;50.50
81630;DHT22;71039;49.500;10.418;2023-07-31T03:31:24;19.30;50.60
81630;DHT22;71039;49.500;10.418;2023-07-31T03:33:49;19.30;50.60
81630;DHT22;71039;49.500;10.418;2023-07-31T03:36:15;19.30;50.70
81630;DHT22;71039;49.500;10.418;2023-07-31T03:38:41;19.30;50.70
81630;DHT22;71039;49.500;10.418;2023-07-31T03:41:06;19.30;50.70
81630;DHT22;71039;49.500;10.418;2023-07-31T03:43:32;19.30;50.70
81630;DHT22;71039;49.500;10.418;2023-07-31T03:45:58;19.30;50.70
81630;DHT22;71039;49.500;10.418;2023-07-31T03:48:24;19.30;50.70
81630;DHT22;71039;49.500;10.418;2023-07-31T03:50:49;19.30;50.60
81630;DHT22;71039;49.500;10.418;2023-07-31T03:53:15;19.30;50.50
81630;DHT22;71039;49.500;10.418;2023-07-31T03:55:41;19.20;50.50
81630;DHT22;71039;49.500;10.418;2023-07-31T03:58:06;19.20;50.60
81630;DHT22;71039;49.500;10.418;2023-07-31T04:00:32;19.20;50.50
81630;DHT22;71039;49.500;10.418;2023-07-31T04:02:58;19.20;50.50
81630;DHT22;71039;49.500;10.418;2023-07-31T04:05:23;19.10;50.50
81630;DHT22;71039;49.500;10.418;2023-07-31T04:07:49;19.10;50.50
81630;DHT22;71039;49.500;10.418;2023-07-31T04:10:14;19.10;50.60
81630;DHT22;71039;49.500;10.418;2023-07-31T04:12:40;19.00;50.70
81630;DHT22;71039;49.500;10.418;2023-07-31T04:15:06;19.00;50.70
81630;DHT22;71039;49.500;10.418;2023-07-31T04:17:31;19.00;50.80
81630;DHT22;71039;49.500;10.418;2023-07-31T04:19:57;18.90;50.80
81630;DHT22;71039;49.500;10.418;2023-07-31T04:22:22;18.90;50.90
81630;DHT22;71039;49.500;10.418;2023-07-31T04:24:48;18.90;51.00
81630;DHT22;71039;49.500;10.418;2023-07-31T04:27:13;18.90;51.00
81630;DHT22;71039;49.500;10.418;2023-07-31T04:29:39;18.90;51.10
81630;DHT22;71039;49.500;10.418;2023-07-31T04:32:05;18.90;51.20
81630;DHT22;71039;49.500;10.418;2023-07-31T04:34:30;18.90;51.30
81630;DHT22;71039;49.500;10.418;2023-07-31T04:36:56;18.90;51.40
81630;DHT22;71039;49.500;10.418;2023-07-31T04:39:21;18.90;51.40
81630;DHT22;71039;49.500;10.418;2023-07-31T04:41:47;18.90;51.50
81630;DHT22;71039;49.500;10.418;2023-07-31T04:44:12;18.90;51.50
81630;DHT22;71039;49.500;10.418;2023-07-31T04:46:38;18.90;51.60
81630;DHT22;71039;49.500;10.418;2023-07-31T04:49:03;18.90;51.70
81630;DHT22;71039;49.500;10.418;2023-07-31T04:51:29;18.90;51.70
81630;DHT22;71039;49.500;10.418;2023-07-31T04:53:55;18.90;51.80
81630;DHT22;71039;49.500;10.418;2023-07-31T04:56:21;19.00;51.80
81630;DHT22;71039;49.500;10.418;2023-07-31T04:58:46;19.00;51.90
81630;DHT22;71039;49.500;10.418;2023-07-31T05:01:12;19.00;51.90
81630;DHT22;71039;49.500;10.418;2023-07-31T05:03:37;19.10;51.90
81630;DHT22;71039;49.500;10.418;2023-07-31T05:06:03;19.10;51.90
81630;DHT22;71039;49.500;10.418;2023-07-31T05:08:29;19.10;51.90
81630;DHT22;71039;49.500;10.418;2023-07-31T05:10:54;19.20;51.80
81630;DHT22;71039;49.500;10.418;2023-07-31T05:13:20;19.20;51.90
81630;DHT22;71039;49.500;10.418;2023-07-31T05:15:46;19.30;51.90
81630;DHT22;71039;49.500;10.418;2023-07-31T05:18:12;19.30;51.90
81630;DHT22;71039;49.500;10.418;2023-07-31T05:20:37;19.40;52.00
81630;DHT22;71039;49.500;10.418;2023-07-31T05:23:03;19.40;52.00
81630;DHT22;71039;49.500;10.418;2023-07-31T05:25:28;19.50;51.90
81630;DHT22;71039;49.500;10.418;2023-07-31T05:27:54;19.50;51.80
81630;DHT22;71039;49.500;10.418;2023-07-31T05:30:19;19.50;51.70
81630;DHT22;71039;49.500;10.418;2023-07-31T05:32:45;19.60;51.60
81630;DHT22;71039;49.500;10.418;2023-07-31T05:35:10;19.70;51.60
81630;DHT22;71039;49.500;10.418;2023-07-31T05:37:36;19.70;51.50
81630;DHT22;71039;49.500;10.418;2023-07-31T05:40:02;19.70;51.50
81630;DHT22;71039;49.500;10.418;2023-07-31T05:42:27;19.70;51.60
81630;DHT22;71039;49.500;10.418;2023-07-31T05:44:53;19.90;51.60
81630;DHT22;71039;49.500;10.418;2023-07-31T05:47:19;19.90;51.60
81630;DHT22;71039;49.500;10.418;2023-07-31T05:49:44;19.90;51.70
81630;DHT22;71039;49.500;10.418;2023-07-31T05:52:10;20.00;51.80
81630;DHT22;71039;49.500;10.418;2023-07-31T05:54:35;20.00;51.80
81630;DHT22;71039;49.500;10.418;2023-07-31T05:57:01;20.10;51.80
81630;DHT22;71039;49.500;10.418;2023-07-31T05:59:27;20.20;51.80
81630;DHT22;71039;49.500;10.418;2023-07-31T06:01:52;20.30;51.80
81630;DHT22;71039;49.500;10.418;2023-07-31T06:04:18;20.30;51.80
81630;DHT22;71039;49.500;10.418;2023-07-31T06:06:44;20.50;51.80
81630;DHT22;71039;49.500;10.418;2023-07-31T06:09:09;20.50;51.70
81630;DHT22;71039;49.500;10.418;2023-07-31T06:11:35;20.60;51.50
81630;DHT22;71039;49.500;10.418;2023-07-31T06:14:00;20.70;51.40
81630;DHT22;71039;49.500;10.418;2023-07-31T06:16:26;20.80;51.30
81630;DHT22;71039;49.500;10.418;2023-07-31T06:18:51;20.80;51.10
81630;DHT22;71039;49.500;10.418;2023-07-31T06:21:17;20.90;51.20
81630;DHT22;71039;49.500;10.418;2023-07-31T06:23:42;21.00;51.10
81630;DHT22;71039;49.500;10.418;2023-07-31T06:26:08;21.10;51.00
81630;DHT22;71039;49.500;10.418;2023-07-31T06:28:34;21.10;50.90
81630;DHT22;71039;49.500;10.418;2023-07-31T06:31:00;21.20;51.00
81630;DHT22;71039;49.500;10.418;2023-07-31T06:33:26;21.30;50.90
81630;DHT22;71039;49.500;10.418;2023-07-31T06:35:52;21.40;50.80
81630;DHT22;71039;49.500;10.418;2023-07-31T06:38:25;21.40;50.70
81630;DHT22;71039;49.500;10.418;2023-07-31T06:40:51;21.50;50.30
81630;DHT22;71039;49.500;10.418;2023-07-31T06:43:16;21.50;50.30
81630;DHT22;71039;49.500;10.418;2023-07-31T06:45:42;21.60;50.30
81630;DHT22;71039;49.500;10.418;2023-07-31T06:48:08;21.70;50.20
81630;DHT22;71039;49.500;10.418;2023-07-31T06:50:33;21.70;50.30
81630;DHT22;71039;49.500;10.418;2023-07-31T06:52:59;21.70;50.30
81630;DHT22;71039;49.500;10.418;2023-07-31T06:55:25;21.80;50.20
81630;DHT22;71039;49.500;10.418;2023-07-31T06:57:53;21.90;50.20
81630;DHT22;71039;49.500;10.418;2023-07-31T07:00:20;21.90;50.10
81630;DHT22;71039;49.500;10.418;2023-07-31T07:02:46;22.00;49.90
81630;DHT22;71039;49.500;10.418;2023-07-31T07:05:12;22.10;49.80
81630;DHT22;71039;49.500;10.418;2023-07-31T07:07:37;22.10;49.70
81630;DHT22;71039;49.500;10.418;2023-07-31T07:10:03;22.20;49.70
81630;DHT22;71039;49.500;10.418;2023-07-31T07:12:30;22.20;49.90
81630;DHT22;71039;49.500;10.418;2023-07-31T07:14:56;22.30;50.10
81630;DHT22;71039;49.500;10.418;2023-07-31T07:17:21;22.50;50.30
81630;DHT22;71039;49.500;10.418;2023-07-31T07:19:48;22.50;50.00
81630;DHT22;71039;49.500;10.418;2023-07-31T07:22:13;22.70;49.50
81630;DHT22;71039;49.500;10.418;2023-07-31T07:24:39;22.70;49.20
81630;DHT22;71039;49.500;10.418;2023-07-31T07:27:05;22.80;49.00
81630;DHT22;71039;49.500;10.418;2023-07-31T07:29:30;22.90;49.40
81630;DHT22;71039;49.500;10.418;2023-07-31T07:31:56;23.00;50.00
81630;DHT22;71039;49.500;10.418;2023-07-31T07:34:26;23.20;50.50
81630;DHT22;71039;49.500;10.418;2023-07-31T07:36:52;23.40;51.30
81630;DHT22;71039;49.500;10.418;2023-07-31T07:39:17;23.60;53.10
81630;DHT22;71039;49.500;10.418;2023-07-31T07:41:43;24.00;53.40
81630;DHT22;71039;49.500;10.418;2023-07-31T07:44:09;24.40;52.70
81630;DHT22;71039;49.500;10.418;2023-07-31T07:46:34;24.80;52.00
81630;DHT22;71039;49.500;10.418;2023-07-31T07:49:00;25.30;51.40
81630;DHT22;71039;49.500;10.418;2023-07-31T07:51:25;25.60;50.70
81630;DHT22;71039;49.500;10.418;2023-07-31T07:53:51;26.00;50.00
81630;DHT22;71039;49.500;10.418;2023-07-31T07:56:16;26.40;48.70
81630;DHT22;71039;49.500;10.418;2023-07-31T07:58:42;26.70;47.40
81630;DHT22;71039;49.500;10.418;2023-07-31T08:01:08;26.90;46.30
81630;DHT22;71039;49.500;10.418;2023-07-31T08:03:33;27.00;45.50
81630;DHT22;71039;49.500;10.418;2023-07-31T08:05:59;27.10;44.90
81630;DHT22;71039;49.500;10.418;2023-07-31T08:08:25;27.20;44.60
81630;DHT22;71039;49.500;10.418;2023-07-31T08:10:51;27.20;44.80
81630;DHT22;71039;49.500;10.418;2023-07-31T08:13:16;27.20;44.60
81630;DHT22;71039;49.500;10.418;2023-07-31T08:15:42;27.20;44.80
81630;DHT22;71039;49.500;10.418;2023-07-31T08:18:08;27.30;45.10
81630;DHT22;71039;49.500;10.418;2023-07-31T08:20:33;27.40;45.00
81630;DHT22;71039;49.500;10.418;2023-07-31T08:22:59;27.50;44.50
81630;DHT22;71039;49.500;10.418;2023-07-31T08:25:24;27.50;44.30
81630;DHT22;71039;49.500;10.418;2023-07-31T08:27:50;27.60;44.20
81630;DHT22;71039;49.500;10.418;2023-07-31T08:30:16;27.70;44.70
81630;DHT22;71039;49.500;10.418;2023-07-31T08:32:41;27.90;44.70
81630;DHT22;71039;49.500;10.418;2023-07-31T08:35:07;28.00;44.50
81630;DHT22;71039;49.500;10.418;2023-07-31T08:37:32;28.10;44.60
81630;DHT22;71039;49.500;10.418;2023-07-31T08:39:58;28.30;44.60
81630;DHT22;71039;49.500;10.418;2023-07-31T08:42:23;28.50;44.20
81630;DHT22;71039;49.500;10.418;2023-07-31T08:44:49;28.70;43.80
81630;DHT22;71039;49.500;10.418;2023-07-31T08:47:16;28.90;43.60
81630;DHT22;71039;49.500;10.418;2023-07-31T08:49:42;29.00;43.20
81630;DHT22;71039;49.500;10.418;2023-07-31T08:52:08;29.20;43.00
81630;DHT22;71039;49.500;10.418;2023-07-31T08:54:34;29.30;43.10
81630;DHT22;71039;49.500;10.418;2023-07-31T08:57:00;29.50;43.70
81630;DHT22;71039;49.500;10.418;2023-07-31T08:59:28;29.70;43.70
81630;DHT22;71039;49.500;10.418;2023-07-31T09:01:55;30.00;43.30
81630;DHT22;71039;49.500;10.418;2023-07-31T09:04:23;30.20;42.80
81630;DHT22;71039;49.500;10.418;2023-07-31T09:06:52;30.40;42.30
81630;DHT22;71039;49.500;10.418;2023-07-31T09:09:19;30.60;41.80
81630;DHT22;71039;49.500;10.418;2023-07-31T09:11:45;30.70;41.40
81630;DHT22;71039;49.500;10.418;2023-07-31T09:14:10;30.90;40.60
81630;DHT22;71039;49.500;10.418;2023-07-31T09:16:54;31.00;40.50
81630;DHT22;71039;49.500;10.418;2023-07-31T09:19:32;31.00;39.30
81630;DHT22;71039;49.500;10.418;2023-07-31T09:21:58;31.10;39.20
81630;DHT22;71039;49.500;10.418;2023-07-31T09:24:28;31.10;40.00
81630;DHT22;71039;49.500;10.418;2023-07-31T09:26:54;31.20;39.40
81630;DHT22;71039;49.500;10.418;2023-07-31T09:29:20;31.20;39.00
81630;DHT22;71039;49.500;10.418;2023-07-31T09:31:45;31.20;38.40
81630;DHT22;71039;49.500;10.418;2023-07-31T09:34:11;31.10;38.00
81630;DHT22;71039;49.500;10.418;2023-07-31T09:36:47;31.00;37.70
81630;DHT22;71039;49.500;10.418;2023-07-31T09:39:14;30.90;36.90
81630;DHT22;71039;49.500;10.418;2023-07-31T09:41:42;30.70;37.70
81630;DHT22;71039;49.500;10.418;2023-07-31T09:44:08;30.50;37.80
81630;DHT22;71039;49.500;10.418;2023-07-31T09:46:37;30.50;38.00
81630;DHT22;71039;49.500;10.418;2023-07-31T09:49:06;30.30;37.90
81630;DHT22;71039;49.500;10.418;2023-07-31T09:51:31;30.30;38.00
81630;DHT22;71039;49.500;10.418;2023-07-31T09:53:57;30.10;38.20
81630;DHT22;71039;49.500;10.418;2023-07-31T09:56:23;30.10;38.20
81630;DHT22;71039;49.500;10.418;2023-07-31T09:58:49;30.10;38.20
81630;DHT22;71039;49.500;10.418;2023-07-31T10:01:15;30.00;38.10
81630;DHT22;71039;49.500;10.418;2023-07-31T10:03:42;30.00;37.90
81630;DHT22;71039;49.500;10.418;2023-07-31T10:06:09;30.00;37.80
81630;DHT22;71039;49.500;10.418;2023-07-31T10:08:36;29.90;37.90
81630;DHT22;71039;49.500;10.418;2023-07-31T10:11:03;29.80;37.80
81630;DHT22;71039;49.500;10.418;2023-07-31T10:13:29;29.70;37.90
81630;DHT22;71039;49.500;10.418;2023-07-31T10:15:59;29.70;37.90
81630;DHT22;71039;49.500;10.418;2023-07-31T10:18:25;29.70;38.00
81630;DHT22;71039;49.500;10.418;2023-07-31T10:20:51;29.60;38.00
81630;DHT22;71039;49.500;10.418;2023-07-31T10:23:18;29.50;37.70
81630;DHT22;71039;49.500;10.418;2023-07-31T10:25:44;29.50;37.70
81630;DHT22;71039;49.500;10.418;2023-07-31T10:28:10;29.40;37.70
81630;DHT22;71039;49.500;10.418;2023-07-31T10:30:37;29.30;37.80
81630;DHT22;71039;49.500;10.418;2023-07-31T10:33:03;29.30;37.90
81630;DHT22;71039;49.500;10.418;2023-07-31T10:35:30;29.20;38.00
81630;DHT22;71039;49.500;10.418;2023-07-31T10:37:55;29.10;38.00
81630;DHT22;71039;49.500;10.418;2023-07-31T10:40:26;29.10;38.10
81630;DHT22;71039;49.500;10.418;2023-07-31T10:42:53;29.10;37.80
81630;DHT22;71039;49.500;10.418;2023-07-31T10:45:26;29.10;37.80
81630;DHT22;71039;49.500;10.418;2023-07-31T10:48:01;29.00;37.50
81630;DHT22;71039;49.500;10.418;2023-07-31T10:50:28;28.90;37.50
81630;DHT22;71039;49.500;10.418;2023-07-31T10:52:55;28.90;37.80
81630;DHT22;71039;49.500;10.418;2023-07-31T10:57:50;28.70;37.70
81630;DHT22;71039;49.500;10.418;2023-07-31T11:00:20;28.60;38.00
81630;DHT22;71039;49.500;10.418;2023-07-31T11:03:03;28.50;38.20
81630;DHT22;71039;49.500;10.418;2023-07-31T11:08:28;28.50;37.90
81630;DHT22;71039;49.500;10.418;2023-07-31T11:13:48;28.50;37.90
81630;DHT22;71039;49.500;10.418;2023-07-31T11:16:14;28.40;38.00
81630;DHT22;71039;49.500;10.418;2023-07-31T11:18:41;28.30;38.10
81630;DHT22;71039;49.500;10.418;2023-07-31T11:21:18;28.30;38.40
81630;DHT22;71039;49.500;10.418;2023-07-31T11:23:48;28.30;38.70
81630;DHT22;71039;49.500;10.418;2023-07-31T11:26:15;28.30;38.80
81630;DHT22;71039;49.500;10.418;2023-07-31T11:28:41;28.30;38.90
81630;DHT22;71039;49.500;10.418;2023-07-31T11:31:09;28.30;38.70
81630;DHT22;71039;49.500;10.418;2023-07-31T11:33:34;28.30;38.40
81630;DHT22;71039;49.500;10.418;2023-07-31T11:36:00;28.30;38.30
81630;DHT22;71039;49.500;10.418;2023-07-31T11:38:33;28.30;38.20
81630;DHT22;71039;49.500;10.418;2023-07-31T11:41:01;28.30;37.80
81630;DHT22;71039;49.500;10.418;2023-07-31T11:43:27;28.30;38.00
81630;DHT22;71039;49.500;10.418;2023-07-31T11:45:54;28.20;38.00
81630;DHT22;71039;49.500;10.418;2023-07-31T11:48:24;28.10;38.10
81630;DHT22;71039;49.500;10.418;2023-07-31T11:50:51;28.10;38.00
81630;DHT22;71039;49.500;10.418;2023-07-31T11:53:23;28.00;38.20
81630;DHT22;71039;49.500;10.418;2023-07-31T11:55:50;28.00;38.30
81630;DHT22;71039;49.500;10.418;2023-07-31T11:58:16;27.90;38.20
81630;DHT22;71039;49.500;10.418;2023-07-31T12:00:42;27.90;38.10
81630;DHT22;71039;49.500;10.418;2023-07-31T12:03:08;27.80;38.20
81630;DHT22;71039;49.500;10.418;2023-07-31T12:05:34;27.80;38.30
81630;DHT22;71039;49.500;10.418;2023-07-31T12:07:59;27.70;38.40
81630;DHT22;71039;49.500;10.418;2023-07-31T12:10:29;27.70;38.40
81630;DHT22;71039;49.500;10.418;2023-07-31T12:12:57;27.70;38.40
81630;DHT22;71039;49.500;10.418;2023-07-31T12:15:29;27.70;38.50
81630;DHT22;71039;49.500;10.418;2023-07-31T12:17:54;27.60;38.40
81630;DHT22;71039;49.500;10.418;2023-07-31T12:20:20;27.60;38.90
81630;DHT22;71039;49.500;10.418;2023-07-31T12:22:45;27.60;38.80
81630;DHT22;71039;49.500;10.418;2023-07-31T12:25:15;27.70;38.70
81630;DHT22;71039;49.500;10.418;2023-07-31T12:27:44;27.70;38.70
81630;DHT22;71039;49.500;10.418;2023-07-31T12:30:33;27.70;39.00
81630;DHT22;71039;49.500;10.418;2023-07-31T12:33:03;27.80;38.70
81630;DHT22;71039;49.500;10.418;2023-07-31T12:35:35;27.90;39.00
81630;DHT22;71039;49.500;10.418;2023-07-31T12:38:02;28.00;38.90
81630;DHT22;71039;49.500;10.418;2023-07-31T12:40:27;28.10;38.90
81630;DHT22;71039;49.500;10.418;2023-07-31T12:42:53;28.10;38.70
81630;DHT22;71039;49.500;10.418;2023-07-31T12:45:18;28.30;38.60
81630;DHT22;71039;49.500;10.418;2023-07-31T12:47:44;28.30;38.40
81630;DHT22;71039;49.500;10.418;2023-07-31T12:50:09;28.40;38.30
81630;DHT22;71039;49.500;10.418;2023-07-31T12:52:35;28.40;38.30
81630;DHT22;71039;49.500;10.418;2023-07-31T12:55:00;28.50;38.00
81630;DHT22;71039;49.500;10.418;2023-07-31T12:57:26;28.50;38.10
81630;DHT22;71039;49.500;10.418;2023-07-31T12:59:51;28.50;38.00
81630;DHT22;71039;49.500;10.418;2023-07-31T13:02:17;28.50;37.90
81630;DHT22;71039;49.500;10.418;2023-07-31T13:04:42;28.50;37.90
81630;DHT22;71039;49.500;10.418;2023-07-31T13:07:08;28.50;37.70
81630;DHT22;71039;49.500;10.418;2023-07-31T13:09:33;28.50;37.80
81630;DHT22;71039;49.500;10.418;2023-07-31T13:11:59;28.50;37.80
81630;DHT22;71039;49.500;10.418;2023-07-31T13:14:24;28.50;37.80
81630;DHT22;71039;49.500;10.418;2023-07-31T13:16:50;28.50;38.00
81630;DHT22;71039;49.500;10.418;2023-07-31T13:19:15;28.50;38.20
81630;DHT22;71039;49.500;10.418;2023-07-31T13:21:41;28.60;38.20
81630;DHT22;71039;49.500;10.418;2023-07-31T13:24:06;28.60;38.10
81630;DHT22;71039;49.500;10.418;2023-07-31T13:26:32;28.70;38.10
81630;DHT22;71039;49.500;10.418;2023-07-31T13:28:57;28.70;38.30
81630;DHT22;71039;49.500;10.418;2023-07-31T13:31:23;28.90;38.00
81630;DHT22;71039;49.500;10.418;2023-07-31T13:33:49;28.90;37.70
81630;DHT22;71039;49.500;10.418;2023-07-31T13:36:14;29.00;37.80
81630;DHT22;71039;49.500;10.418;2023-07-31T13:38:40;29.00;37.90
81630;DHT22;71039;49.500;10.418;2023-07-31T13:41:05;29.10;37.70
81630;DHT22;71039;49.500;10.418;2023-07-31T13:43:31;29.20;37.50
81630;DHT22;71039;49.500;10.418;2023-07-31T13:45:56;29.20;37.30
81630;DHT22;71039;49.500;10.418;2023-07-31T13:48:22;29.30;37.00
81630;DHT22;71039;49.500;10.418;2023-07-31T13:50:47;29.30;36.80
81630;DHT22;71039;49.500;10.418;2023-07-31T13:53:13;29.20;36.60
81630;DHT22;71039;49.500;10.418;2023-07-31T13:55:38;29.20;36.50
81630;DHT22;71039;49.500;10.418;2023-07-31T13:58:04;29.20;36.30
81630;DHT22;71039;49.500;10.418;2023-07-31T14:00:29;29.10;36.20
81630;DHT22;71039;49.500;10.418;2023-07-31T14:02:55;29.00;36.20
81630;DHT22;71039;49.500;10.418;2023-07-31T14:05:20;28.90;36.20
81630;DHT22;71039;49.500;10.418;2023-07-31T14:07:46;28.80;36.10
81630;DHT22;71039;49.500;10.418;2023-07-31T14:10:11;28.60;36.10
81630;DHT22;71039;49.500;10.418;2023-07-31T14:12:37;28.50;36.10
81630;DHT22;71039;49.500;10.418;2023-07-31T14:15:02;28.50;36.20
81630;DHT22;71039;49.500;10.418;2023-07-31T14:17:28;28.30;36.20
81630;DHT22;71039;49.500;10.418;2023-07-31T14:19:54;28.10;36.40
81630;DHT22;71039;49.500;10.418;2023-07-31T14:22:29;28.10;36.50
81630;DHT22;71039;49.500;10.418;2023-07-31T14:24:55;28.00;36.50
81630;DHT22;71039;49.500;10.418;2023-07-31T14:27:20;27.90;36.70
81630;DHT22;71039;49.500;10.418;2023-07-31T14:29:46;27.80;36.80
81630;DHT22;71039;49.500;10.418;2023-07-31T14:32:11;27.70;37.00
81630;DHT22;71039;49.500;10.418;2023-07-31T14:34:37;27.60;37.10
81630;DHT22;71039;49.500;10.418;2023-07-31T14:37:02;27.50;37.20
81630;DHT22;71039;49.500;10.418;2023-07-31T14:39:28;27.50;37.20
81630;DHT22;71039;49.500;10.418;2023-07-31T14:41:54;27.40;37.30
81630;DHT22;71039;49.500;10.418;2023-07-31T14:44:19;27.40;37.50
81630;DHT22;71039;49.500;10.418;2023-07-31T14:46:45;27.30;37.50
81630;DHT22;71039;49.500;10.418;2023-07-31T14:49:10;27.20;37.60
81630;DHT22;71039;49.500;10.418;2023-07-31T14:51:36;27.10;37.70
81630;DHT22;71039;49.500;10.418;2023-07-31T14:54:01;27.10;37.70
81630;DHT22;71039;49.500;10.418;2023-07-31T14:56:27;27.00;37.90
81630;DHT22;71039;49.500;10.418;2023-07-31T14:58:52;27.00;38.00
81630;DHT22;71039;49.500;10.418;2023-07-31T15:01:18;26.90;38.00
81630;DHT22;71039;49.500;10.418;2023-07-31T15:03:43;26.90;38.20
81630;DHT22;71039;49.500;10.418;2023-07-31T15:06:09;26.80;38.20
81630;DHT22;71039;49.500;10.418;2023-07-31T15:08:34;26.80;38.30
81630;DHT22;71039;49.500;10.418;2023-07-31T15:11:00;26.80;38.40
81630;DHT22;71039;49.500;10.418;2023-07-31T15:13:25;26.80;38.50
81630;DHT22;71039;49.500;10.418;2023-07-31T15:15:51;26.70;38.50
81630;DHT22;71039;49.500;10.418;2023-07-31T15:18:16;26.70;38.60
81630;DHT22;71039;49.500;10.418;2023-07-31T15:20:42;26.70;38.60
81630;DHT22;71039;49.500;10.418;2023-07-31T15:23:07;26.70;38.60
81630;DHT22;71039;49.500;10.418;2023-07-31T15:25:33;26.70;38.60